HunTS Point — WDH2432 — position and weather

sailwx.info

Track history (hours):
 
Tides and Currents Weather Stations Pressure Air Temp Water Temp Dewpoint Dewpoint Depression Visibility Wind Speed Wind Dir Waves Ship Positions

HunTS Point

Owner: NEW YORK, CITY OF, BROOKLYN, NY. More information available from US FCC via Universal Licensing System and Coast Guard Vessel Documentation Center.

Last reported at 2018-Jul-20 15:52 UTC. Time now 2018-Jul-21 03:51 UTC.
Position N 40°45' W 073°57'.

Length 88 m; draft 4.3 m.

Type: Tanker. MMSI: 367597530.

Date/timePositionNaut miles runAvg speedWind from/ knotsBaromVisibWave heightAir tempDewpointWater temp
2018-Jul-20 15:52N 40°45' W 073°57'3 9.6
2018-Jul-20 15:31N 40°42' W 073°60'4 8.2
2018-Jul-20 15:00N 40°39' W 074°02'0 0.2
2018-Jul-20 14:30N 40°39' W 074°02'0 0.0
2018-Jul-20 14:00N 40°39' W 074°02'0 0.0
2018-Jul-20 13:30N 40°39' W 074°02'0 0.0
2018-Jul-20 13:00N 40°39' W 074°02'3 6.6
2018-Jul-20 12:30N 40°42' W 074°00'3 0.2
2018-Jul-19 20:50N 40°44' W 073°58'2 7.4
2018-Jul-19 20:31N 40°42' W 074°00'3 0.8
2018-Jul-19 16:40N 40°45' W 074°01'211.5
2018-Jul-19 16:31N 40°43' W 074°01'2 4.5
2018-Jul-19 16:01N 40°43' W 073°58'5 0.3
2018-Jul-18 19:48N 40°47' W 073°53'1 1.6
2018-Jul-18 19:03N 40°48' W 073°53'0 0.0
2018-Jul-18 17:31N 40°48' W 073°53'4 8.3
2018-Jul-18 17:00N 40°45' W 073°57'510.7
2018-Jul-18 16:31N 40°41' W 074°01'2 4.8
2018-Jul-18 16:01N 40°39' W 074°02'0 0.0
2018-Jul-18 15:30N 40°39' W 074°02'0 0.0
2018-Jul-18 15:01N 40°39' W 074°02'0 0.0
2018-Jul-18 14:31N 40°39' W 074°02'2 1.5
2018-Jul-18 13:31N 40°40' W 074°01'5 9.0
2018-Jul-18 13:00N 40°44' W 073°58'5 0.1
2018-Jul-16 11:49N 40°47' W 073°54'0 0.0
2018-Jul-14 09:52N 40°47' W 073°54'0 0.0
2018-Jul-14 09:26N 40°47' W 073°54'0 0.0
2018-Jul-14 09:00N 40°47' W 073°54'0 0.0
2018-Jul-14 08:29N 40°47' W 073°54'0 0.0
2018-Jul-14 08:00N 40°47' W 073°54'0 0.0
2018-Jul-14 07:30N 40°47' W 073°54'0 0.0
2018-Jul-14 07:00N 40°47' W 073°54'0 0.0
2018-Jul-14 06:30N 40°47' W 073°54'0 0.0
2018-Jul-14 06:00N 40°47' W 073°54'0 0.0
2018-Jul-14 05:23N 40°47' W 073°54'0 0.0
2018-Jul-14 05:00N 40°47' W 073°54'0 0.0
2018-Jul-14 04:25N 40°47' W 073°54'0 0.0
2018-Jul-13 11:05N 40°47' W 073°54'0 0.0
2018-Jul-13 11:00N 40°47' W 073°54'0 0.0
2018-Jul-13 10:30N 40°47' W 073°54'0 0.0
2018-Jul-13 10:00N 40°47' W 073°54'0 0.0
2018-Jul-13 09:30N 40°47' W 073°54'0 0.0
2018-Jul-13 09:00N 40°47' W 073°54'0 0.0
2018-Jul-13 08:30N 40°47' W 073°54'0 0.0
2018-Jul-13 07:59N 40°47' W 073°54'0 0.0
2018-Jul-13 07:30N 40°47' W 073°54'0 0.0
2018-Jul-13 07:00N 40°47' W 073°54'0 0.0
2018-Jul-13 06:30N 40°47' W 073°54'0 0.0
2018-Jul-13 06:00N 40°47' W 073°54'0 0.0
2018-Jul-13 05:30N 40°47' W 073°54'0 0.0
2018-Jul-13 05:00N 40°47' W 073°54'0 0.0
2018-Jul-13 04:30N 40°47' W 073°54'0 0.0
2018-Jul-13 03:25N 40°47' W 073°54'0 0.0
2018-Jul-11 08:13N 40°47' W 073°54'0 0.0
2018-Jul-11 08:00N 40°47' W 073°54'3 0.2
2018-Jul-10 18:49N 40°45' W 073°57'3 8.9
2018-Jul-10 18:31N 40°43' W 073°58'4 7.8
2018-Jul-10 18:01N 40°40' W 074°01'1 2.3
2018-Jul-10 17:30N 40°39' W 074°02'0 0.0
2018-Jul-10 17:00N 40°39' W 074°02'0 0.0
2018-Jul-10 16:30N 40°39' W 074°02'0 0.0
2018-Jul-10 16:00N 40°39' W 074°02'  
Track history (hours):
 
Tides and Currents Weather Stations Pressure Air Temp Water Temp Dewpoint Dewpoint Depression Visibility Wind Speed Wind Dir Waves Ship Positions

HunTS Point

Owner: NEW YORK, CITY OF, BROOKLYN, NY. More information available from US FCC via Universal Licensing System and Coast Guard Vessel Documentation Center.

Last reported at 2018-Jul-20 15:52 UTC. Time now 2018-Jul-21 03:51 UTC.
Position N 40°45' W 073°57'.

Length 88 m; draft 4.3 m.

Type: Tanker. MMSI: 367597530.

Date/timePositionNaut miles runAvg speedWind from/ knotsBaromVisibWave heightAir tempDewpointWater temp
2018-Jul-20 15:52N 40°45' W 073°57'3 9.6
2018-Jul-20 15:31N 40°42' W 073°60'4 8.2
2018-Jul-20 15:00N 40°39' W 074°02'0 0.2
2018-Jul-20 14:30N 40°39' W 074°02'0 0.0
2018-Jul-20 14:00N 40°39' W 074°02'0 0.0
2018-Jul-20 13:30N 40°39' W 074°02'0 0.0
2018-Jul-20 13:00N 40°39' W 074°02'3 6.6
2018-Jul-20 12:30N 40°42' W 074°00'3 0.2
2018-Jul-19 20:50N 40°44' W 073°58'2 7.4
2018-Jul-19 20:31N 40°42' W 074°00'3 0.8
2018-Jul-19 16:40N 40°45' W 074°01'211.5
2018-Jul-19 16:31N 40°43' W 074°01'2 4.5
2018-Jul-19 16:01N 40°43' W 073°58'5 0.3
2018-Jul-18 19:48N 40°47' W 073°53'1 1.6
2018-Jul-18 19:03N 40°48' W 073°53'0 0.0
2018-Jul-18 17:31N 40°48' W 073°53'4 8.3
2018-Jul-18 17:00N 40°45' W 073°57'510.7
2018-Jul-18 16:31N 40°41' W 074°01'2 4.8
2018-Jul-18 16:01N 40°39' W 074°02'0 0.0
2018-Jul-18 15:30N 40°39' W 074°02'0 0.0
2018-Jul-18 15:01N 40°39' W 074°02'0 0.0
2018-Jul-18 14:31N 40°39' W 074°02'2 1.5
2018-Jul-18 13:31N 40°40' W 074°01'5 9.0
2018-Jul-18 13:00N 40°44' W 073°58'5 0.1
2018-Jul-16 11:49N 40°47' W 073°54'0 0.0
2018-Jul-14 09:52N 40°47' W 073°54'0 0.0
2018-Jul-14 09:26N 40°47' W 073°54'0 0.0
2018-Jul-14 09:00N 40°47' W 073°54'0 0.0
2018-Jul-14 08:29N 40°47' W 073°54'0 0.0
2018-Jul-14 08:00N 40°47' W 073°54'0 0.0
2018-Jul-14 07:30N 40°47' W 073°54'0 0.0
2018-Jul-14 07:00N 40°47' W 073°54'0 0.0
2018-Jul-14 06:30N 40°47' W 073°54'0 0.0
2018-Jul-14 06:00N 40°47' W 073°54'0 0.0
2018-Jul-14 05:23N 40°47' W 073°54'0 0.0
2018-Jul-14 05:00N 40°47' W 073°54'0 0.0
2018-Jul-14 04:25N 40°47' W 073°54'0 0.0
2018-Jul-13 11:05N 40°47' W 073°54'0 0.0
2018-Jul-13 11:00N 40°47' W 073°54'0 0.0
2018-Jul-13 10:30N 40°47' W 073°54'0 0.0
2018-Jul-13 10:00N 40°47' W 073°54'0 0.0
2018-Jul-13 09:30N 40°47' W 073°54'0 0.0
2018-Jul-13 09:00N 40°47' W 073°54'0 0.0
2018-Jul-13 08:30N 40°47' W 073°54'0 0.0
2018-Jul-13 07:59N 40°47' W 073°54'0 0.0
2018-Jul-13 07:30N 40°47' W 073°54'0 0.0
2018-Jul-13 07:00N 40°47' W 073°54'0 0.0
2018-Jul-13 06:30N 40°47' W 073°54'0 0.0
2018-Jul-13 06:00N 40°47' W 073°54'0 0.0
2018-Jul-13 05:30N 40°47' W 073°54'0 0.0
2018-Jul-13 05:00N 40°47' W 073°54'0 0.0
2018-Jul-13 04:30N 40°47' W 073°54'0 0.0
2018-Jul-13 03:25N 40°47' W 073°54'0 0.0
2018-Jul-11 08:13N 40°47' W 073°54'0 0.0
2018-Jul-11 08:00N 40°47' W 073°54'3 0.2
2018-Jul-10 18:49N 40°45' W 073°57'3 8.9
2018-Jul-10 18:31N 40°43' W 073°58'4 7.8
2018-Jul-10 18:01N 40°40' W 074°01'1 2.3
2018-Jul-10 17:30N 40°39' W 074°02'0 0.0
2018-Jul-10 17:00N 40°39' W 074°02'0 0.0
2018-Jul-10 16:30N 40°39' W 074°02'0 0.0
2018-Jul-10 16:00N 40°39' W 074°02'  

Dump ship's entire track history